84NY weather

Skyview Airport
Rush, New York, United States

Public forecast

Using degrees Fahrenheit for public forecast. Weather courtesy of forecast.io.

METAR (pilot weather report)

Closest report is Greater Rochester International Airport, 8.4 nm (15.5 km) NNW. Retrieved 2019/05/21 07:54 UTC (34 minutes ago):

KROC 210754Z 29010G18KT 10SM CLR 08/04 A3003 RMK AO2 SLP173 T00780039

TAF (pilot weather forecast)

Closest forecast is Greater Rochester International Airport, 8.4 nm (15.5 km) NNW. Retrieved 2019/05/21 06:34 UTC (2 hours ago):

TAF KROC 210532Z 2106/2206 29010G22KT P6SM BKN025 FM210700 29009KT P6SM BKN050 FM210800 28009KT P6SM FEW250 FM211100 29010G16KT P6SM FEW250 FM212300 29008KT P6SM SKC